This is the latest recevied weather packets stored in our database for station/object 9W2CEW-1. If no packets are shown the sender has not sent any weather packets the latest 1 day(s).
| Time | Temp. | Humidity | Pressure | Rain* | Wind** | Luminosity | Snow |
|---|---|---|---|---|---|---|---|
| 1777916049 | 33.33° C | 60% | 1004.4 hPa | - | - | - | - |
| 1777915149 | 34.44° C | 57% | 1004.7 hPa | - | - | - | - |
| 1777914249 | 33.33° C | 59% | 1004.8 hPa | - | - | - | - |
| 1777913428 | 32.78° C | 62% | 1004.9 hPa | - | - | - | - |
| 1777913349 | 32.78° C | 62% | 1004.9 hPa | - | - | - | - |
| 1777912573 | 33.33° C | 62% | 1005 hPa | - | - | - | - |
| 1777912449 | 33.33° C | 62% | 1005 hPa | - | - | - | - |
| 1777911631 | 34.44° C | 58% | 1004.9 hPa | - | - | - | - |
| 1777911549 | 34.44° C | 58% | 1004.9 hPa | - | - | - | - |
| 1777910649 | 34.44° C | 56% | 1005.1 hPa | - | - | - | - |
| 1777909811 | 34.44° C | 55% | 1005.1 hPa | - | - | - | - |
| 1777909749 | 34.44° C | 55% | 1005.1 hPa | - | - | - | - |
| 1777908849 | 34.44° C | 57% | 1005 hPa | - | - | - | - |
| 1777907990 | 33.89° C | 57% | 1004.8 hPa | - | - | - | - |
| 1777907949 | 33.89° C | 57% | 1004.8 hPa | - | - | - | - |
| 1777907048 | 33.89° C | 59% | 1004.7 hPa | - | - | - | - |
| 1777906237 | 33.33° C | 58% | 1004.8 hPa | - | - | - | - |
| 1777906148 | 33.33° C | 58% | 1004.8 hPa | - | - | - | - |
| 1777905251 | 34.44° C | 56% | 1004.5 hPa | - | - | - | - |
| 1777904402 | 34.44° C | 57% | 1004.2 hPa | - | - | - | - |
| 1777904349 | 34.44° C | 57% | 1004.2 hPa | - | - | - | - |
| 1777903457 | 33.89° C | 58% | 1004 hPa | - | - | - | - |
| 1777902783 | 33.33° C | 60% | 1004.1 hPa | - | - | - | - |
| 1777902550 | 33.33° C | 60% | 1004.1 hPa | - | - | - | - |
| 1777901650 | 32.78° C | 62% | 1004.2 hPa | - | - | - | - |
* Rain since midnight (hover to see other rain measurements)
** Current wind speed in m/s (hover to see current wind gust speed)